00:31
Airports
Links
Donate
Help keep this website running!
PayPal
Bitcoin
METAR
ENDU 250020Z AUTO 00000KT 9999 NCD 08/08 Q1019 RMK WIND 1100FT 16004KT WIND 2200FT 15006KT
Current Weather Conditions at ENDU
VFR 00:20:00 25-07-17
Automated station, no observer
Altimeter:30.09 hg
Temp:8.0°c 46°f
Dew point:8.0°c 46°f
Wind:0 knots, 0 mph, 0 m/s,
Variable direction
Visibility:6.21 statute miles
(CLR) Clear
Past METAR reports
VFR 23:50:00 24-07-17
Automated station, no observer
Altimeter:30.09 hg
Temp:9.0°c 48°f
Dew point:9.0°c 48°f
Wind:2 knots, 2.3 mph, 1 m/s, from 300°
Visibility:6.21 statute miles
(CLR) Clear
ENDU 242350Z AUTO 30002KT 9999 NCD 09/09 Q1019 RMK WIND 1100FT 14003KT WIND 2200FT 12007KT
VFR 23:20:00 24-07-17
Automated station, no observer
Altimeter:30.09 hg
Temp:9.0°c 48°f
Dew point:8.0°c 46°f
Wind:0 knots, 0 mph, 0 m/s,
Variable direction
Visibility:6.21 statute miles
(CLR) Clear
ENDU 242320Z AUTO 00000KT 9999 NCD 09/08 Q1019 RMK WIND 1100FT 19002KT WIND 2200FT 12007KT
VFR 22:50:00 24-07-17
Automated station, no observer
Altimeter:30.09 hg
Temp:10.0°c 50°f
Dew point:9.0°c 48°f
Wind:0 knots, 0 mph, 0 m/s,
Variable direction
Visibility:6.21 statute miles
(CLR) Clear
ENDU 242250Z AUTO 00000KT 9999 NCD 10/09 Q1019 RMK WIND 1100FT 01003KT WIND 2200FT 12004KT
VFR 22:20:00 24-07-17
Automated station, no observer
Altimeter:30.09 hg
Temp:10.0°c 50°f
Dew point:9.0°c 48°f
Wind:1 knots, 1.2 mph, 1 m/s,
Variable direction
Visibility:6.21 statute miles
(CLR) Clear
ENDU 242220Z AUTO VRB01KT 9999 NCD 10/09 Q1019 RMK WIND 1100FT 36003KT WIND 2200FT 09004KT
VFR 21:50:00 24-07-17
Automated station, no observer
Altimeter:30.09 hg
Temp:12.0°c 54°f
Dew point:10.0°c 50°f
Wind:0 knots, 0 mph, 0 m/s,
Variable direction
Visibility:6.21 statute miles
(CLR) Clear
ENDU 242150Z AUTO 00000KT 9999 NCD 12/10 Q1019 RMK WIND 1100FT 33005KT WIND 2200FT 06004KT
VFR 21:20:00 24-07-17
Automated station, no observer
Altimeter:30.09 hg
Temp:14.0°c 57°f
Dew point:10.0°c 50°f
Wind:4 knots, 4.6 mph, 2 m/s, from 270°
Visibility:6.21 statute miles
(CLR) Clear
ENDU 242120Z AUTO 27004KT 250V320 9999 NCD 14/10 Q1019 RMK WIND 1100FT 31006KT WIND 2200FT 03005KT
TAF
TAF ENDU 2500/2524 VRB05KT 9999 FEW040 TEMPO 2509/2518 30010KT PROB40 2522/2524 1200 PRFG
Forecast at ENDU
00:00 25-07-17 to 00:00 26-07-17
Wind:5 Knots from 360°
Visibility:6.21 statute miles
4000FEW A few
TEMPO 09:00 25-07-17 to 18:00 25-07-17
Wind:10 Knots from 300°
PROB 22:00 25-07-17 to 00:00 26-07-17
40% PRFG
Visibility:0.75 statute miles